sensor_id;sensor_type;location;lat;lon;timestamp;temperature;humidity
12015;DHT22;6066;48.138;16.402;2024-02-21T00:01:51;7.70;99.90
12015;DHT22;6066;48.138;16.402;2024-02-21T00:04:17;7.70;99.90
12015;DHT22;6066;48.138;16.402;2024-02-21T00:06:44;7.70;99.90
12015;DHT22;6066;48.138;16.402;2024-02-21T00:09:11;7.70;99.90
12015;DHT22;6066;48.138;16.402;2024-02-21T00:11:39;7.80;99.90
12015;DHT22;6066;48.138;16.402;2024-02-21T00:14:06;7.80;99.90
12015;DHT22;6066;48.138;16.402;2024-02-21T00:16:33;7.70;99.90
12015;DHT22;6066;48.138;16.402;2024-02-21T00:18:59;7.80;99.90
12015;DHT22;6066;48.138;16.402;2024-02-21T00:21:26;7.80;99.90
12015;DHT22;6066;48.138;16.402;2024-02-21T00:23:53;7.80;99.90
12015;DHT22;6066;48.138;16.402;2024-02-21T00:26:20;7.80;99.90
12015;DHT22;6066;48.138;16.402;2024-02-21T00:28:48;7.90;99.90
12015;DHT22;6066;48.138;16.402;2024-02-21T00:31:14;7.90;99.90
12015;DHT22;6066;48.138;16.402;2024-02-21T00:33:41;7.80;99.90
12015;DHT22;6066;48.138;16.402;2024-02-21T00:36:08;7.80;99.90
12015;DHT22;6066;48.138;16.402;2024-02-21T00:38:35;7.80;99.90
12015;DHT22;6066;48.138;16.402;2024-02-21T00:41:01;7.80;99.90
12015;DHT22;6066;48.138;16.402;2024-02-21T00:43:28;7.80;99.90
12015;DHT22;6066;48.138;16.402;2024-02-21T00:45:56;7.80;99.90
12015;DHT22;6066;48.138;16.402;2024-02-21T00:48:23;7.80;99.90
12015;DHT22;6066;48.138;16.402;2024-02-21T00:50:50;7.90;99.90
12015;DHT22;6066;48.138;16.402;2024-02-21T00:53:17;7.90;99.90
12015;DHT22;6066;48.138;16.402;2024-02-21T00:55:44;7.90;99.90
12015;DHT22;6066;48.138;16.402;2024-02-21T00:58:10;7.90;99.90
12015;DHT22;6066;48.138;16.402;2024-02-21T01:00:37;7.80;99.90
12015;DHT22;6066;48.138;16.402;2024-02-21T01:03:05;7.80;99.90
12015;DHT22;6066;48.138;16.402;2024-02-21T01:05:32;7.90;99.90
12015;DHT22;6066;48.138;16.402;2024-02-21T01:07:59;7.90;99.90
12015;DHT22;6066;48.138;16.402;2024-02-21T01:10:25;7.80;99.90
12015;DHT22;6066;48.138;16.402;2024-02-21T01:12:52;8.00;99.90
12015;DHT22;6066;48.138;16.402;2024-02-21T01:15:19;7.90;99.90
12015;DHT22;6066;48.138;16.402;2024-02-21T01:17:46;7.80;99.90
12015;DHT22;6066;48.138;16.402;2024-02-21T01:20:14;7.90;99.90
12015;DHT22;6066;48.138;16.402;2024-02-21T01:22:41;7.90;99.90
12015;DHT22;6066;48.138;16.402;2024-02-21T01:25:08;7.90;99.90
12015;DHT22;6066;48.138;16.402;2024-02-21T01:27:35;7.80;99.90
12015;DHT22;6066;48.138;16.402;2024-02-21T01:30:01;7.90;99.90
12015;DHT22;6066;48.138;16.402;2024-02-21T01:32:29;7.90;99.90
12015;DHT22;6066;48.138;16.402;2024-02-21T01:34:55;8.00;99.90
12015;DHT22;6066;48.138;16.402;2024-02-21T01:37:23;7.90;99.90
12015;DHT22;6066;48.138;16.402;2024-02-21T01:39:50;7.90;99.90
12015;DHT22;6066;48.138;16.402;2024-02-21T01:42:17;7.90;99.90
12015;DHT22;6066;48.138;16.402;2024-02-21T01:44:44;7.90;99.90
12015;DHT22;6066;48.138;16.402;2024-02-21T01:47:10;7.90;99.90
12015;DHT22;6066;48.138;16.402;2024-02-21T01:49:38;7.90;99.90
12015;DHT22;6066;48.138;16.402;2024-02-21T01:52:05;7.90;99.90
12015;DHT22;6066;48.138;16.402;2024-02-21T01:54:34;7.80;99.90
12015;DHT22;6066;48.138;16.402;2024-02-21T01:57:01;7.80;99.90
12015;DHT22;6066;48.138;16.402;2024-02-21T01:59:27;7.80;99.90
12015;DHT22;6066;48.138;16.402;2024-02-21T02:01:55;7.80;99.90
12015;DHT22;6066;48.138;16.402;2024-02-21T02:04:22;7.80;99.90
12015;DHT22;6066;48.138;16.402;2024-02-21T02:06:49;7.80;99.90
12015;DHT22;6066;48.138;16.402;2024-02-21T02:09:18;7.80;99.90
12015;DHT22;6066;48.138;16.402;2024-02-21T02:11:46;7.80;99.90
12015;DHT22;6066;48.138;16.402;2024-02-21T02:14:13;7.80;99.90
12015;DHT22;6066;48.138;16.402;2024-02-21T02:16:39;7.80;99.90
12015;DHT22;6066;48.138;16.402;2024-02-21T02:19:06;7.70;99.90
12015;DHT22;6066;48.138;16.402;2024-02-21T02:21:39;7.70;99.90
12015;DHT22;6066;48.138;16.402;2024-02-21T02:24:07;7.80;99.90
12015;DHT22;6066;48.138;16.402;2024-02-21T02:26:34;7.80;99.90
12015;DHT22;6066;48.138;16.402;2024-02-21T02:29:01;7.70;99.90
12015;DHT22;6066;48.138;16.402;2024-02-21T02:31:28;7.70;99.90
12015;DHT22;6066;48.138;16.402;2024-02-21T02:33:54;7.70;99.90
12015;DHT22;6066;48.138;16.402;2024-02-21T02:36:21;7.80;99.90
12015;DHT22;6066;48.138;16.402;2024-02-21T02:38:48;7.80;99.90
12015;DHT22;6066;48.138;16.402;2024-02-21T02:41:16;7.80;99.90
12015;DHT22;6066;48.138;16.402;2024-02-21T02:43:43;7.80;99.90
12015;DHT22;6066;48.138;16.402;2024-02-21T02:46:09;7.80;99.90
12015;DHT22;6066;48.138;16.402;2024-02-21T02:48:36;7.80;99.90
12015;DHT22;6066;48.138;16.402;2024-02-21T02:51:04;7.70;99.90
12015;DHT22;6066;48.138;16.402;2024-02-21T02:53:30;7.70;99.90
12015;DHT22;6066;48.138;16.402;2024-02-21T02:55:57;7.70;99.90
12015;DHT22;6066;48.138;16.402;2024-02-21T02:58:25;7.70;99.90
12015;DHT22;6066;48.138;16.402;2024-02-21T03:00:52;7.70;99.90
12015;DHT22;6066;48.138;16.402;2024-02-21T03:03:19;7.80;99.90
12015;DHT22;6066;48.138;16.402;2024-02-21T03:05:45;7.80;99.90
12015;DHT22;6066;48.138;16.402;2024-02-21T03:08:12;7.70;99.90
12015;DHT22;6066;48.138;16.402;2024-02-21T03:10:39;7.70;99.90
12015;DHT22;6066;48.138;16.402;2024-02-21T03:13:06;7.70;99.90
12015;DHT22;6066;48.138;16.402;2024-02-21T03:15:34;7.70;99.90
12015;DHT22;6066;48.138;16.402;2024-02-21T03:18:01;7.80;99.90
12015;DHT22;6066;48.138;16.402;2024-02-21T03:20:28;7.80;99.90
12015;DHT22;6066;48.138;16.402;2024-02-21T03:22:55;7.70;99.90
12015;DHT22;6066;48.138;16.402;2024-02-21T03:25:21;7.70;99.90
12015;DHT22;6066;48.138;16.402;2024-02-21T03:27:48;7.80;99.90
12015;DHT22;6066;48.138;16.402;2024-02-21T03:30:15;7.70;99.90
12015;DHT22;6066;48.138;16.402;2024-02-21T03:32:43;7.80;99.90
12015;DHT22;6066;48.138;16.402;2024-02-21T03:35:10;7.80;99.90
12015;DHT22;6066;48.138;16.402;2024-02-21T03:37:37;7.80;99.90
12015;DHT22;6066;48.138;16.402;2024-02-21T03:40:06;7.80;99.90
12015;DHT22;6066;48.138;16.402;2024-02-21T03:42:33;7.80;99.90
12015;DHT22;6066;48.138;16.402;2024-02-21T03:45:00;7.70;99.90
12015;DHT22;6066;48.138;16.402;2024-02-21T03:47:27;7.70;99.90
12015;DHT22;6066;48.138;16.402;2024-02-21T03:49:55;7.60;99.90
12015;DHT22;6066;48.138;16.402;2024-02-21T03:52:22;7.70;99.90
12015;DHT22;6066;48.138;16.402;2024-02-21T03:54:48;7.70;99.90
12015;DHT22;6066;48.138;16.402;2024-02-21T03:57:15;7.70;99.90
12015;DHT22;6066;48.138;16.402;2024-02-21T03:59:42;7.70;99.90
12015;DHT22;6066;48.138;16.402;2024-02-21T04:02:09;7.70;99.90
12015;DHT22;6066;48.138;16.402;2024-02-21T04:04:36;7.70;99.90
12015;DHT22;6066;48.138;16.402;2024-02-21T04:07:04;7.60;99.90
12015;DHT22;6066;48.138;16.402;2024-02-21T04:09:32;7.60;99.90
12015;DHT22;6066;48.138;16.402;2024-02-21T04:12:00;7.50;99.90
12015;DHT22;6066;48.138;16.402;2024-02-21T04:14:27;7.50;99.90
12015;DHT22;6066;48.138;16.402;2024-02-21T04:16:54;7.40;99.90
12015;DHT22;6066;48.138;16.402;2024-02-21T04:19:20;7.40;99.90
12015;DHT22;6066;48.138;16.402;2024-02-21T04:21:47;7.40;99.90
12015;DHT22;6066;48.138;16.402;2024-02-21T04:24:15;7.40;99.90
12015;DHT22;6066;48.138;16.402;2024-02-21T04:26:42;7.30;99.90
12015;DHT22;6066;48.138;16.402;2024-02-21T04:29:09;7.40;99.90
12015;DHT22;6066;48.138;16.402;2024-02-21T04:31:36;7.30;99.90
12015;DHT22;6066;48.138;16.402;2024-02-21T04:34:03;7.30;99.90
12015;DHT22;6066;48.138;16.402;2024-02-21T04:36:29;7.20;99.90
12015;DHT22;6066;48.138;16.402;2024-02-21T04:38:56;7.30;99.90
12015;DHT22;6066;48.138;16.402;2024-02-21T04:41:24;7.40;99.90
12015;DHT22;6066;48.138;16.402;2024-02-21T04:43:51;7.40;99.90
12015;DHT22;6066;48.138;16.402;2024-02-21T04:46:18;7.40;99.90
12015;DHT22;6066;48.138;16.402;2024-02-21T04:48:45;7.40;99.90
12015;DHT22;6066;48.138;16.402;2024-02-21T04:51:12;7.30;99.90
12015;DHT22;6066;48.138;16.402;2024-02-21T04:53:39;7.40;99.90
12015;DHT22;6066;48.138;16.402;2024-02-21T04:56:06;7.40;99.90
12015;DHT22;6066;48.138;16.402;2024-02-21T04:58:37;7.40;99.90
12015;DHT22;6066;48.138;16.402;2024-02-21T05:01:03;7.40;99.90
12015;DHT22;6066;48.138;16.402;2024-02-21T05:03:30;7.40;99.90
12015;DHT22;6066;48.138;16.402;2024-02-21T05:05:57;7.40;99.90
12015;DHT22;6066;48.138;16.402;2024-02-21T05:08:24;7.40;99.90
12015;DHT22;6066;48.138;16.402;2024-02-21T05:10:50;7.40;99.90
12015;DHT22;6066;48.138;16.402;2024-02-21T05:13:17;7.50;99.90
12015;DHT22;6066;48.138;16.402;2024-02-21T05:15:45;7.50;99.90
12015;DHT22;6066;48.138;16.402;2024-02-21T05:18:12;7.60;99.90
12015;DHT22;6066;48.138;16.402;2024-02-21T05:20:39;7.60;99.90
12015;DHT22;6066;48.138;16.402;2024-02-21T05:23:05;7.60;99.90
12015;DHT22;6066;48.138;16.402;2024-02-21T05:25:32;7.60;99.90
12015;DHT22;6066;48.138;16.402;2024-02-21T05:27:59;7.60;99.90
12015;DHT22;6066;48.138;16.402;2024-02-21T05:30:27;7.60;99.90
12015;DHT22;6066;48.138;16.402;2024-02-21T05:32:55;7.60;99.90
12015;DHT22;6066;48.138;16.402;2024-02-21T05:35:24;7.60;99.90
12015;DHT22;6066;48.138;16.402;2024-02-21T05:37:51;7.60;99.90
12015;DHT22;6066;48.138;16.402;2024-02-21T05:40:19;7.60;99.90
12015;DHT22;6066;48.138;16.402;2024-02-21T05:42:45;7.60;99.90
12015;DHT22;6066;48.138;16.402;2024-02-21T05:45:12;7.60;99.90
12015;DHT22;6066;48.138;16.402;2024-02-21T05:47:40;7.60;99.90
12015;DHT22;6066;48.138;16.402;2024-02-21T05:50:09;7.60;99.90
12015;DHT22;6066;48.138;16.402;2024-02-21T05:52:36;7.60;99.90
12015;DHT22;6066;48.138;16.402;2024-02-21T05:55:03;7.60;99.90
12015;DHT22;6066;48.138;16.402;2024-02-21T05:57:30;7.50;99.90
12015;DHT22;6066;48.138;16.402;2024-02-21T05:59:56;7.50;99.90
12015;DHT22;6066;48.138;16.402;2024-02-21T06:02:23;7.50;99.90
12015;DHT22;6066;48.138;16.402;2024-02-21T06:04:50;7.50;99.90
12015;DHT22;6066;48.138;16.402;2024-02-21T06:07:18;7.60;99.90
12015;DHT22;6066;48.138;16.402;2024-02-21T06:09:45;7.60;99.90
12015;DHT22;6066;48.138;16.402;2024-02-21T06:12:12;7.60;99.90
12015;DHT22;6066;48.138;16.402;2024-02-21T06:14:38;7.70;99.90
12015;DHT22;6066;48.138;16.402;2024-02-21T06:17:05;7.70;99.90
12015;DHT22;6066;48.138;16.402;2024-02-21T06:19:32;7.70;99.90
12015;DHT22;6066;48.138;16.402;2024-02-21T06:21:59;7.70;99.90
12015;DHT22;6066;48.138;16.402;2024-02-21T06:24:27;7.70;99.90
12015;DHT22;6066;48.138;16.402;2024-02-21T06:26:54;7.80;99.90
12015;DHT22;6066;48.138;16.402;2024-02-21T06:29:20;7.80;99.90
12015;DHT22;6066;48.138;16.402;2024-02-21T06:31:47;7.80;99.90
12015;DHT22;6066;48.138;16.402;2024-02-21T06:34:14;7.80;99.90
12015;DHT22;6066;48.138;16.402;2024-02-21T06:36:41;7.80;99.90
12015;DHT22;6066;48.138;16.402;2024-02-21T06:39:07;7.90;99.90
12015;DHT22;6066;48.138;16.402;2024-02-21T06:41:37;7.90;99.90
12015;DHT22;6066;48.138;16.402;2024-02-21T06:44:05;7.80;99.90
12015;DHT22;6066;48.138;16.402;2024-02-21T06:46:32;7.90;99.90
12015;DHT22;6066;48.138;16.402;2024-02-21T06:48:59;8.00;99.90
12015;DHT22;6066;48.138;16.402;2024-02-21T06:51:26;8.00;99.90
12015;DHT22;6066;48.138;16.402;2024-02-21T06:53:53;8.00;99.90
12015;DHT22;6066;48.138;16.402;2024-02-21T06:56:20;8.00;99.90
12015;DHT22;6066;48.138;16.402;2024-02-21T06:58:48;8.00;99.90
12015;DHT22;6066;48.138;16.402;2024-02-21T07:01:15;8.00;99.90
12015;DHT22;6066;48.138;16.402;2024-02-21T07:03:42;8.10;99.90
12015;DHT22;6066;48.138;16.402;2024-02-21T07:06:09;8.10;99.90
12015;DHT22;6066;48.138;16.402;2024-02-21T07:08:35;8.30;99.90
12015;DHT22;6066;48.138;16.402;2024-02-21T07:11:02;8.30;99.90
12015;DHT22;6066;48.138;16.402;2024-02-21T07:13:29;8.30;99.90
12015;DHT22;6066;48.138;16.402;2024-02-21T07:15:57;8.30;99.90
12015;DHT22;6066;48.138;16.402;2024-02-21T07:18:24;8.30;99.90
12015;DHT22;6066;48.138;16.402;2024-02-21T07:20:51;8.30;99.90
12015;DHT22;6066;48.138;16.402;2024-02-21T07:23:18;8.30;99.90
12015;DHT22;6066;48.138;16.402;2024-02-21T07:25:45;8.30;99.90
12015;DHT22;6066;48.138;16.402;2024-02-21T07:28:12;8.20;99.90
12015;DHT22;6066;48.138;16.402;2024-02-21T07:30:39;8.20;99.90
12015;DHT22;6066;48.138;16.402;2024-02-21T07:33:07;8.20;99.90
12015;DHT22;6066;48.138;16.402;2024-02-21T07:35:34;8.20;99.90
12015;DHT22;6066;48.138;16.402;2024-02-21T07:38:03;8.30;99.90
12015;DHT22;6066;48.138;16.402;2024-02-21T07:40:30;8.30;99.90
12015;DHT22;6066;48.138;16.402;2024-02-21T07:42:57;8.30;99.90
12015;DHT22;6066;48.138;16.402;2024-02-21T07:45:23;8.50;99.90
12015;DHT22;6066;48.138;16.402;2024-02-21T07:47:50;8.50;99.90
12015;DHT22;6066;48.138;16.402;2024-02-21T07:50:18;8.60;99.90
12015;DHT22;6066;48.138;16.402;2024-02-21T07:52:45;8.60;99.90
12015;DHT22;6066;48.138;16.402;2024-02-21T07:55:13;8.70;99.90
12015;DHT22;6066;48.138;16.402;2024-02-21T07:57:40;8.70;99.90
12015;DHT22;6066;48.138;16.402;2024-02-21T08:00:07;8.70;99.90
12015;DHT22;6066;48.138;16.402;2024-02-21T08:02:35;8.70;99.90
12015;DHT22;6066;48.138;16.402;2024-02-21T08:05:03;8.70;99.90
12015;DHT22;6066;48.138;16.402;2024-02-21T08:07:33;8.80;99.90
12015;DHT22;6066;48.138;16.402;2024-02-21T08:10:02;8.90;99.90
12015;DHT22;6066;48.138;16.402;2024-02-21T08:12:29;8.90;99.90
12015;DHT22;6066;48.138;16.402;2024-02-21T08:14:58;9.10;99.90
12015;DHT22;6066;48.138;16.402;2024-02-21T08:17:24;9.20;99.90
12015;DHT22;6066;48.138;16.402;2024-02-21T08:19:51;9.30;99.90
12015;DHT22;6066;48.138;16.402;2024-02-21T08:22:18;9.30;99.90
12015;DHT22;6066;48.138;16.402;2024-02-21T08:24:46;9.30;99.90
12015;DHT22;6066;48.138;16.402;2024-02-21T08:27:17;9.30;99.90
12015;DHT22;6066;48.138;16.402;2024-02-21T08:29:43;9.30;99.90
12015;DHT22;6066;48.138;16.402;2024-02-21T08:32:10;9.30;99.90
12015;DHT22;6066;48.138;16.402;2024-02-21T08:34:37;9.30;99.90
12015;DHT22;6066;48.138;16.402;2024-02-21T08:37:04;9.50;99.90
12015;DHT22;6066;48.138;16.402;2024-02-21T08:39:30;9.60;99.90
12015;DHT22;6066;48.138;16.402;2024-02-21T08:41:59;9.80;99.90
12015;DHT22;6066;48.138;16.402;2024-02-21T08:44:27;9.90;99.90
12015;DHT22;6066;48.138;16.402;2024-02-21T08:46:54;10.10;99.90
12015;DHT22;6066;48.138;16.402;2024-02-21T08:49:21;10.30;99.90
12015;DHT22;6066;48.138;16.402;2024-02-21T08:51:48;10.50;99.90
12015;DHT22;6066;48.138;16.402;2024-02-21T08:54:14;10.50;99.90
12015;DHT22;6066;48.138;16.402;2024-02-21T08:56:42;10.60;99.90
12015;DHT22;6066;48.138;16.402;2024-02-21T08:59:10;10.60;99.90
12015;DHT22;6066;48.138;16.402;2024-02-21T09:01:36;10.70;99.90
12015;DHT22;6066;48.138;16.402;2024-02-21T09:04:02;10.70;99.90
12015;DHT22;6066;48.138;16.402;2024-02-21T09:06:30;10.60;99.90
12015;DHT22;6066;48.138;16.402;2024-02-21T09:08:58;10.60;99.90
12015;DHT22;6066;48.138;16.402;2024-02-21T09:11:25;10.50;99.90
12015;DHT22;6066;48.138;16.402;2024-02-21T09:13:53;10.40;99.90
12015;DHT22;6066;48.138;16.402;2024-02-21T09:16:22;10.30;99.90
12015;DHT22;6066;48.138;16.402;2024-02-21T09:18:49;10.30;99.90
12015;DHT22;6066;48.138;16.402;2024-02-21T09:21:17;10.20;99.90
12015;DHT22;6066;48.138;16.402;2024-02-21T09:23:44;10.20;99.90
12015;DHT22;6066;48.138;16.402;2024-02-21T09:26:11;10.20;99.90
12015;DHT22;6066;48.138;16.402;2024-02-21T09:28:41;10.30;99.90
12015;DHT22;6066;48.138;16.402;2024-02-21T09:31:08;10.50;99.90
12015;DHT22;6066;48.138;16.402;2024-02-21T09:33:36;10.60;99.90
12015;DHT22;6066;48.138;16.402;2024-02-21T09:36:05;10.70;99.90
12015;DHT22;6066;48.138;16.402;2024-02-21T09:38:32;10.80;99.90
12015;DHT22;6066;48.138;16.402;2024-02-21T09:40:59;10.90;99.90
12015;DHT22;6066;48.138;16.402;2024-02-21T09:43:28;11.00;99.90
12015;DHT22;6066;48.138;16.402;2024-02-21T09:45:55;11.00;99.90
12015;DHT22;6066;48.138;16.402;2024-02-21T09:48:26;10.90;99.90
12015;DHT22;6066;48.138;16.402;2024-02-21T09:50:58;10.80;99.90
12015;DHT22;6066;48.138;16.402;2024-02-21T09:53:25;10.80;99.90
12015;DHT22;6066;48.138;16.402;2024-02-21T09:55:52;10.80;99.90
12015;DHT22;6066;48.138;16.402;2024-02-21T09:58:19;10.90;99.90
12015;DHT22;6066;48.138;16.402;2024-02-21T10:00:47;10.90;99.90
12015;DHT22;6066;48.138;16.402;2024-02-21T10:03:13;10.90;99.90
12015;DHT22;6066;48.138;16.402;2024-02-21T10:05:46;11.00;99.90
12015;DHT22;6066;48.138;16.402;2024-02-21T10:08:15;11.10;99.90
12015;DHT22;6066;48.138;16.402;2024-02-21T10:10:42;11.20;99.90
12015;DHT22;6066;48.138;16.402;2024-02-21T10:13:09;11.20;99.90
12015;DHT22;6066;48.138;16.402;2024-02-21T10:15:36;11.50;99.90
12015;DHT22;6066;48.138;16.402;2024-02-21T10:18:06;11.60;99.90
12015;DHT22;6066;48.138;16.402;2024-02-21T10:20:33;11.70;99.90
12015;DHT22;6066;48.138;16.402;2024-02-21T10:23:00;11.80;99.90
12015;DHT22;6066;48.138;16.402;2024-02-21T10:25:29;11.90;99.90
12015;DHT22;6066;48.138;16.402;2024-02-21T10:27:57;12.10;99.90
12015;DHT22;6066;48.138;16.402;2024-02-21T10:30:23;12.30;99.90
12015;DHT22;6066;48.138;16.402;2024-02-21T10:32:53;12.50;99.90
12015;DHT22;6066;48.138;16.402;2024-02-21T10:35:26;12.60;99.90
12015;DHT22;6066;48.138;16.402;2024-02-21T10:37:54;12.80;99.90
12015;DHT22;6066;48.138;16.402;2024-02-21T10:40:22;12.90;99.90
12015;DHT22;6066;48.138;16.402;2024-02-21T10:42:50;13.10;99.90
12015;DHT22;6066;48.138;16.402;2024-02-21T10:45:17;13.10;99.90
12015;DHT22;6066;48.138;16.402;2024-02-21T10:47:44;13.00;99.90
12015;DHT22;6066;48.138;16.402;2024-02-21T10:50:15;12.90;99.90
12015;DHT22;6066;48.138;16.402;2024-02-21T10:52:44;12.80;99.90
12015;DHT22;6066;48.138;16.402;2024-02-21T10:55:16;12.80;99.90
12015;DHT22;6066;48.138;16.402;2024-02-21T10:57:46;12.80;99.90
12015;DHT22;6066;48.138;16.402;2024-02-21T11:00:14;12.80;99.90
12015;DHT22;6066;48.138;16.402;2024-02-21T11:02:41;12.80;99.90
12015;DHT22;6066;48.138;16.402;2024-02-21T11:05:08;12.80;99.90
12015;DHT22;6066;48.138;16.402;2024-02-21T11:07:35;12.80;99.90
12015;DHT22;6066;48.138;16.402;2024-02-21T11:10:05;12.90;99.90
12015;DHT22;6066;48.138;16.402;2024-02-21T11:12:33;12.90;99.90
12015;DHT22;6066;48.138;16.402;2024-02-21T11:15:06;12.80;99.90
12015;DHT22;6066;48.138;16.402;2024-02-21T11:17:34;12.70;99.90
12015;DHT22;6066;48.138;16.402;2024-02-21T11:20:10;12.70;99.90
12015;DHT22;6066;48.138;16.402;2024-02-21T11:22:41;12.70;99.90
12015;DHT22;6066;48.138;16.402;2024-02-21T11:25:08;12.70;99.90
12015;DHT22;6066;48.138;16.402;2024-02-21T11:27:37;12.60;99.90
12015;DHT22;6066;48.138;16.402;2024-02-21T11:30:04;12.60;99.90
12015;DHT22;6066;48.138;16.402;2024-02-21T11:32:31;12.50;99.90
12015;DHT22;6066;48.138;16.402;2024-02-21T11:35:02;12.40;99.90
12015;DHT22;6066;48.138;16.402;2024-02-21T11:37:30;12.20;99.90
12015;DHT22;6066;48.138;16.402;2024-02-21T11:39:59;12.20;99.90
12015;DHT22;6066;48.138;16.402;2024-02-21T11:42:25;12.20;99.90
12015;DHT22;6066;48.138;16.402;2024-02-21T11:44:53;12.10;99.90
12015;DHT22;6066;48.138;16.402;2024-02-21T11:47:22;12.20;99.90
12015;DHT22;6066;48.138;16.402;2024-02-21T11:49:49;12.00;99.90
12015;DHT22;6066;48.138;16.402;2024-02-21T11:52:21;12.00;99.90
12015;DHT22;6066;48.138;16.402;2024-02-21T11:54:50;12.00;99.90
12015;DHT22;6066;48.138;16.402;2024-02-21T11:57:17;12.00;99.90
12015;DHT22;6066;48.138;16.402;2024-02-21T11:59:44;12.00;99.90
12015;DHT22;6066;48.138;16.402;2024-02-21T12:02:11;12.00;99.90
12015;DHT22;6066;48.138;16.402;2024-02-21T12:04:38;12.10;99.90
12015;DHT22;6066;48.138;16.402;2024-02-21T12:07:05;12.10;99.90
12015;DHT22;6066;48.138;16.402;2024-02-21T12:09:33;12.20;99.90
12015;DHT22;6066;48.138;16.402;2024-02-21T12:12:01;12.20;99.90
12015;DHT22;6066;48.138;16.402;2024-02-21T12:14:30;12.20;99.90
12015;DHT22;6066;48.138;16.402;2024-02-21T12:16:57;12.10;99.90
12015;DHT22;6066;48.138;16.402;2024-02-21T12:19:23;12.10;99.90
12015;DHT22;6066;48.138;16.402;2024-02-21T12:21:50;12.10;99.90
12015;DHT22;6066;48.138;16.402;2024-02-21T12:24:20;12.00;99.90
12015;DHT22;6066;48.138;16.402;2024-02-21T12:26:49;11.90;99.90
12015;DHT22;6066;48.138;16.402;2024-02-21T12:29:17;11.90;99.90
12015;DHT22;6066;48.138;16.402;2024-02-21T12:31:44;11.80;99.90
12015;DHT22;6066;48.138;16.402;2024-02-21T12:34:11;11.80;99.90
12015;DHT22;6066;48.138;16.402;2024-02-21T12:36:40;11.70;99.90
12015;DHT22;6066;48.138;16.402;2024-02-21T12:39:07;11.80;99.90
12015;DHT22;6066;48.138;16.402;2024-02-21T12:41:34;11.80;99.90
12015;DHT22;6066;48.138;16.402;2024-02-21T12:44:05;11.70;99.90
12015;DHT22;6066;48.138;16.402;2024-02-21T12:46:32;11.80;99.90
12015;DHT22;6066;48.138;16.402;2024-02-21T12:48:59;11.60;99.90
12015;DHT22;6066;48.138;16.402;2024-02-21T12:51:26;11.60;99.90
12015;DHT22;6066;48.138;16.402;2024-02-21T12:53:53;11.50;99.90
12015;DHT22;6066;48.138;16.402;2024-02-21T12:56:20;11.50;99.90
12015;DHT22;6066;48.138;16.402;2024-02-21T12:58:46;11.50;99.90
12015;DHT22;6066;48.138;16.402;2024-02-21T13:01:15;11.50;99.90
12015;DHT22;6066;48.138;16.402;2024-02-21T13:03:41;11.60;99.90
12015;DHT22;6066;48.138;16.402;2024-02-21T13:06:08;11.60;99.90
12015;DHT22;6066;48.138;16.402;2024-02-21T13:08:36;11.60;99.90
12015;DHT22;6066;48.138;16.402;2024-02-21T13:11:03;11.60;99.90
12015;DHT22;6066;48.138;16.402;2024-02-21T13:13:32;11.70;99.90
12015;DHT22;6066;48.138;16.402;2024-02-21T13:15:58;11.80;99.90
12015;DHT22;6066;48.138;16.402;2024-02-21T13:18:27;11.90;99.90
12015;DHT22;6066;48.138;16.402;2024-02-21T13:20:53;12.00;99.90
12015;DHT22;6066;48.138;16.402;2024-02-21T13:23:20;12.10;99.90
12015;DHT22;6066;48.138;16.402;2024-02-21T13:25:47;12.10;99.90
12015;DHT22;6066;48.138;16.402;2024-02-21T13:28:14;12.20;99.90
12015;DHT22;6066;48.138;16.402;2024-02-21T13:30:41;12.30;99.90
12015;DHT22;6066;48.138;16.402;2024-02-21T13:33:08;12.40;99.90
12015;DHT22;6066;48.138;16.402;2024-02-21T13:35:37;12.50;99.90
12015;DHT22;6066;48.138;16.402;2024-02-21T13:38:04;12.60;99.90
12015;DHT22;6066;48.138;16.402;2024-02-21T13:40:31;12.70;99.90
12015;DHT22;6066;48.138;16.402;2024-02-21T13:42:58;12.80;99.90
12015;DHT22;6066;48.138;16.402;2024-02-21T13:45:24;12.70;99.90
12015;DHT22;6066;48.138;16.402;2024-02-21T13:47:51;12.70;99.90
12015;DHT22;6066;48.138;16.402;2024-02-21T13:50:18;12.70;99.90
12015;DHT22;6066;48.138;16.402;2024-02-21T13:52:47;12.70;99.90
12015;DHT22;6066;48.138;16.402;2024-02-21T13:55:16;12.70;99.90
12015;DHT22;6066;48.138;16.402;2024-02-21T13:57:43;12.60;99.90
12015;DHT22;6066;48.138;16.402;2024-02-21T14:00:10;12.50;99.90
12015;DHT22;6066;48.138;16.402;2024-02-21T14:02:37;12.50;99.90
12015;DHT22;6066;48.138;16.402;2024-02-21T14:05:04;12.50;99.90
12015;DHT22;6066;48.138;16.402;2024-02-21T14:07:33;12.40;99.90
12015;DHT22;6066;48.138;16.402;2024-02-21T14:10:01;12.40;99.90
12015;DHT22;6066;48.138;16.402;2024-02-21T14:12:29;12.30;99.90
12015;DHT22;6066;48.138;16.402;2024-02-21T14:14:57;12.30;99.90
12015;DHT22;6066;48.138;16.402;2024-02-21T14:17:24;12.30;99.90
12015;DHT22;6066;48.138;16.402;2024-02-21T14:19:51;12.30;99.90
12015;DHT22;6066;48.138;16.402;2024-02-21T14:22:18;12.30;99.90
12015;DHT22;6066;48.138;16.402;2024-02-21T14:24:45;12.30;99.90
12015;DHT22;6066;48.138;16.402;2024-02-21T14:27:13;12.20;99.90
12015;DHT22;6066;48.138;16.402;2024-02-21T14:29:40;12.10;99.90
12015;DHT22;6066;48.138;16.402;2024-02-21T14:32:07;12.10;99.90
12015;DHT22;6066;48.138;16.402;2024-02-21T14:34:35;12.00;99.90
12015;DHT22;6066;48.138;16.402;2024-02-21T14:37:02;11.90;99.90
12015;DHT22;6066;48.138;16.402;2024-02-21T14:39:29;11.80;99.90
12015;DHT22;6066;48.138;16.402;2024-02-21T14:41:58;11.70;99.90
12015;DHT22;6066;48.138;16.402;2024-02-21T14:44:26;11.60;99.90
12015;DHT22;6066;48.138;16.402;2024-02-21T14:46:57;11.60;99.90
12015;DHT22;6066;48.138;16.402;2024-02-21T14:49:24;11.50;99.90
12015;DHT22;6066;48.138;16.402;2024-02-21T14:51:52;11.50;99.90
12015;DHT22;6066;48.138;16.402;2024-02-21T14:54:22;11.50;99.90
12015;DHT22;6066;48.138;16.402;2024-02-21T14:56:49;11.60;99.90
12015;DHT22;6066;48.138;16.402;2024-02-21T14:59:16;11.60;99.90
12015;DHT22;6066;48.138;16.402;2024-02-21T15:01:44;11.60;99.90
12015;DHT22;6066;48.138;16.402;2024-02-21T15:04:11;11.60;99.90
12015;DHT22;6066;48.138;16.402;2024-02-21T15:06:38;11.60;99.90
12015;DHT22;6066;48.138;16.402;2024-02-21T15:09:05;11.50;99.90
12015;DHT22;6066;48.138;16.402;2024-02-21T15:11:32;11.40;99.90
12015;DHT22;6066;48.138;16.402;2024-02-21T15:13:59;11.30;99.90
12015;DHT22;6066;48.138;16.402;2024-02-21T15:16:27;11.20;99.90
12015;DHT22;6066;48.138;16.402;2024-02-21T15:18:55;11.10;99.90
12015;DHT22;6066;48.138;16.402;2024-02-21T15:21:22;11.10;99.90
12015;DHT22;6066;48.138;16.402;2024-02-21T15:23:49;11.00;99.90
12015;DHT22;6066;48.138;16.402;2024-02-21T15:26:15;11.00;99.90
12015;DHT22;6066;48.138;16.402;2024-02-21T15:28:43;10.90;99.90
12015;DHT22;6066;48.138;16.402;2024-02-21T15:31:18;10.90;99.90
12015;DHT22;6066;48.138;16.402;2024-02-21T15:33:47;10.80;99.90
12015;DHT22;6066;48.138;16.402;2024-02-21T15:36:15;10.80;99.90
12015;DHT22;6066;48.138;16.402;2024-02-21T15:38:42;10.80;99.90
12015;DHT22;6066;48.138;16.402;2024-02-21T15:41:16;10.70;99.90